createdAt,value
2023-03-04T00:02:26.591Z,101669.53
2023-03-04T00:04:53.370Z,101672.28
2023-03-04T00:07:20.128Z,101674.94
2023-03-04T00:09:47.271Z,101668.88
2023-03-04T00:12:14.117Z,101668.00
2023-03-04T00:14:41.419Z,101663.69
2023-03-04T00:17:11.390Z,101670.75
2023-03-04T00:19:38.226Z,101666.38
2023-03-04T00:22:05.107Z,101669.03
2023-03-04T00:24:32.494Z,101666.50
2023-03-04T00:26:59.584Z,101663.88
2023-03-04T00:29:26.745Z,101662.16
2023-03-04T00:31:53.689Z,101663.94
2023-03-04T00:34:20.777Z,101657.84
2023-03-04T00:36:47.559Z,101657.00
2023-03-04T00:39:14.598Z,101657.91
2023-03-04T00:41:41.394Z,101654.44
2023-03-04T00:44:08.375Z,101652.63
2023-03-04T00:46:35.174Z,101651.78
2023-03-04T00:49:01.991Z,101650.94
2023-03-04T00:51:28.776Z,101647.50
2023-03-04T00:53:55.585Z,101644.00
2023-03-04T00:56:22.359Z,101642.28
2023-03-04T00:58:49.129Z,101635.28
2023-03-04T01:01:15.967Z,101639.72
2023-03-04T01:03:42.800Z,101631.84
2023-03-04T01:06:09.604Z,101622.19
2023-03-04T01:08:36.402Z,101629.22
2023-03-04T01:11:03.292Z,101624.84
2023-03-04T01:13:30.298Z,101625.75
2023-03-04T01:15:57.726Z,101620.53
2023-03-04T01:18:25.121Z,101622.31
2023-03-04T01:20:51.985Z,101625.81
2023-03-04T01:23:18.838Z,101617.91
2023-03-04T01:25:45.636Z,101622.34
2023-03-04T01:28:12.456Z,101606.53
2023-03-04T01:30:39.329Z,101603.94
2023-03-04T01:33:06.173Z,101603.94
2023-03-04T01:35:36.052Z,101600.47
2023-03-04T01:38:03.868Z,101596.09
2023-03-04T01:40:32.111Z,101590.81
2023-03-04T01:42:59.114Z,101579.38
2023-03-04T01:45:25.986Z,101578.53
2023-03-04T01:47:52.988Z,101583.81
2023-03-04T01:50:33.669Z,101576.84
2023-03-04T01:53:02.075Z,101564.50
2023-03-04T01:55:31.156Z,101561.03
2023-03-04T01:57:58.066Z,101555.75
2023-03-04T02:00:27.866Z,101565.41
2023-03-04T02:03:07.750Z,101566.38
2023-03-04T02:05:37.561Z,101560.16
2023-03-04T02:08:05.517Z,101560.16
2023-03-04T02:10:32.668Z,101555.81
2023-03-04T02:13:01.322Z,101554.97
2023-03-04T02:15:29.506Z,101548.84
2023-03-04T02:17:56.980Z,101551.50
2023-03-04T02:20:47.860Z,101548.84
2023-03-04T02:23:28.965Z,101538.31
2023-03-04T02:26:29.742Z,101534.78
2023-03-04T02:28:59.823Z,101544.44
2023-03-04T02:31:38.479Z,101528.63
2023-03-04T02:34:11.864Z,101525.13
2023-03-04T02:36:39.513Z,101527.75
2023-03-04T02:39:22.196Z,101529.50
2023-03-04T02:41:52.308Z,101531.25
2023-03-04T02:44:29.270Z,101521.66
2023-03-04T02:46:57.070Z,101526.03
2023-03-04T02:49:26.775Z,101527.81
2023-03-04T02:52:08.261Z,101519.97
2023-03-04T02:54:35.356Z,101518.16
2023-03-04T02:57:06.133Z,101513.78
2023-03-04T02:59:33.599Z,101520.81
2023-03-04T03:02:00.475Z,101516.44
2023-03-04T03:04:27.785Z,101517.34
2023-03-04T03:06:54.920Z,101527.03
2023-03-04T03:09:22.160Z,101515.66
2023-03-04T03:11:48.936Z,101521.81
2023-03-04T03:14:15.973Z,101513.91
2023-03-04T03:16:43.337Z,101522.69
2023-03-04T03:19:10.220Z,101516.53
2023-03-04T03:21:37.015Z,101522.69
2023-03-04T03:24:03.918Z,101522.69
2023-03-04T03:26:30.699Z,101520.97
2023-03-04T03:28:57.638Z,101517.44
2023-03-04T03:31:24.408Z,101517.50
2023-03-04T03:33:51.255Z,101506.09
2023-03-04T03:36:18.317Z,101509.59
2023-03-04T03:38:45.132Z,101502.56
2023-03-04T03:41:11.928Z,101514.00
2023-03-04T03:43:38.682Z,101501.69
2023-03-04T03:46:05.679Z,101499.94
2023-03-04T03:48:32.620Z,101494.66
2023-03-04T03:50:59.372Z,101493.78
2023-03-04T03:53:26.147Z,101494.66
2023-03-04T03:55:52.901Z,101492.91
2023-03-04T03:58:19.791Z,101495.56
2023-03-04T04:00:46.555Z,101486.75
2023-03-04T04:03:16.010Z,101492.03
2023-03-04T04:05:42.904Z,101492.03
2023-03-04T04:08:17.684Z,101488.53
2023-03-04T04:10:44.889Z,101477.09
2023-03-04T04:13:12.045Z,101478.78
2023-03-04T04:15:38.933Z,101478.78
2023-03-04T04:18:07.541Z,101478.78
2023-03-04T04:20:35.299Z,101476.16
2023-03-04T04:23:02.991Z,101476.16
2023-03-04T04:25:29.804Z,101485.75
2023-03-04T04:27:56.606Z,101487.53
2023-03-04T04:30:23.401Z,101481.34
2023-03-04T04:32:50.215Z,101476.03
2023-03-04T04:35:17.189Z,101478.69
2023-03-04T04:37:43.983Z,101481.28
2023-03-04T04:40:11.609Z,101476.88
2023-03-04T04:42:38.405Z,101478.63
2023-03-04T04:45:05.995Z,101472.50
2023-03-04T04:47:32.769Z,101464.53
2023-03-04T04:49:59.539Z,101462.78
2023-03-04T04:52:26.310Z,101461.06
2023-03-04T04:54:53.100Z,101456.66
2023-03-04T04:57:19.916Z,101454.00
2023-03-04T04:59:46.701Z,101457.53
2023-03-04T05:02:13.550Z,101446.06
2023-03-04T05:04:40.301Z,101449.59
2023-03-04T05:07:07.123Z,101442.59
2023-03-04T05:09:34.092Z,101448.78
2023-03-04T05:12:00.848Z,101442.59
2023-03-04T05:14:27.639Z,101443.44
2023-03-04T05:16:54.459Z,101445.22
2023-03-04T05:19:21.690Z,101445.22
2023-03-04T05:21:48.527Z,101442.59
2023-03-04T05:24:15.294Z,101451.41
2023-03-04T05:26:42.310Z,101444.34
2023-03-04T05:29:09.186Z,101444.28
2023-03-04T05:31:35.989Z,101450.41
2023-03-04T05:34:02.810Z,101449.50
2023-03-04T05:36:29.580Z,101453.94
2023-03-04T05:38:56.358Z,101453.88
2023-03-04T05:41:23.170Z,101450.31
2023-03-04T05:43:50.750Z,101445.91
2023-03-04T05:46:19.255Z,101442.38
2023-03-04T05:48:46.212Z,101450.28
2023-03-04T05:51:13.002Z,101448.56
2023-03-04T05:53:41.544Z,101447.72
2023-03-04T05:56:15.220Z,101447.72
2023-03-04T05:58:42.163Z,101445.03
2023-03-04T06:01:09.395Z,101446.78
2023-03-04T06:03:36.600Z,101444.13
2023-03-04T06:06:04.546Z,101446.78
2023-03-04T06:08:31.873Z,101446.78
2023-03-04T06:10:59.166Z,101445.94
2023-03-04T06:13:26.317Z,101452.13
2023-03-04T06:15:58.689Z,101446.88
2023-03-04T06:18:27.358Z,101452.13
2023-03-04T06:21:02.179Z,101452.13
2023-03-04T06:23:30.012Z,101450.34
2023-03-04T06:25:59.592Z,101445.06
2023-03-04T06:28:26.789Z,101450.34
2023-03-04T06:30:55.364Z,101450.34
2023-03-04T06:33:22.639Z,101446.88
2023-03-04T06:35:53.993Z,101446.88
2023-03-04T06:38:20.824Z,101452.19
2023-03-04T06:40:47.604Z,101444.25
2023-03-04T06:43:14.375Z,101450.47
2023-03-04T06:45:41.409Z,101440.81
2023-03-04T06:48:08.279Z,101444.34
2023-03-04T06:50:35.042Z,101440.00
2023-03-04T06:53:01.884Z,101441.81
2023-03-04T06:55:28.756Z,101448.84
2023-03-04T06:57:55.504Z,101459.38
2023-03-04T07:00:24.049Z,101445.28
2023-03-04T07:02:52.500Z,101455.84
2023-03-04T07:05:20.154Z,101449.72
2023-03-04T07:07:46.969Z,101461.16
2023-03-04T07:10:13.809Z,101450.63
2023-03-04T07:12:40.603Z,101455.06
2023-03-04T07:15:07.991Z,101447.13
2023-03-04T07:17:34.895Z,101449.72
2023-03-04T07:20:01.814Z,101447.06
2023-03-04T07:22:28.594Z,101445.28
2023-03-04T07:24:55.640Z,101448.84
2023-03-04T07:27:22.430Z,101441.88
2023-03-04T07:29:49.193Z,101447.13
2023-03-04T07:32:16.123Z,101441.06
2023-03-04T07:34:42.900Z,101451.66
2023-03-04T07:37:09.938Z,101440.28
2023-03-04T07:39:36.698Z,101457.03
2023-03-04T07:42:03.526Z,101453.63
2023-03-04T07:44:30.408Z,101441.34
2023-03-04T07:46:57.215Z,101449.34
2023-03-04T07:49:24.008Z,101451.09
2023-03-04T07:51:50.789Z,101452.88
2023-03-04T07:54:20.032Z,101461.75
2023-03-04T07:56:46.977Z,101452.88
2023-03-04T07:59:13.820Z,101459.94
2023-03-04T08:01:40.613Z,101458.25
2023-03-04T08:04:08.072Z,101449.59
2023-03-04T08:06:35.814Z,101457.66
2023-03-04T08:09:06.483Z,101456.03
2023-03-04T08:11:36.061Z,101450.00
2023-03-04T08:14:03.645Z,101450.09
2023-03-04T08:16:30.480Z,101451.91
2023-03-04T08:18:59.736Z,101462.56
2023-03-04T08:21:27.765Z,101463.44
2023-03-04T08:23:55.414Z,101449.34
2023-03-04T08:26:35.433Z,101458.19
2023-03-04T08:29:04.762Z,101463.44
2023-03-04T08:31:32.365Z,101465.19
2023-03-04T08:33:59.220Z,101457.25
2023-03-04T08:36:26.034Z,101460.75
2023-03-04T08:38:52.822Z,101467.72
2023-03-04T08:41:20.285Z,101461.50
2023-03-04T08:43:47.120Z,101469.38
2023-03-04T08:46:14.091Z,101471.97
2023-03-04T08:48:40.963Z,101457.00
2023-03-04T08:51:13.713Z,101457.09
2023-03-04T08:53:40.795Z,101459.88
2023-03-04T08:56:08.159Z,101466.16
2023-03-04T08:58:35.553Z,101463.63
2023-03-04T09:01:03.715Z,101455.75
2023-03-04T09:03:31.016Z,101458.47
2023-03-04T09:05:57.794Z,101444.44
2023-03-04T09:08:25.177Z,101452.44
2023-03-04T09:10:54.852Z,101451.53
2023-03-04T09:13:26.205Z,101459.47
2023-03-04T09:15:53.574Z,101455.00
2023-03-04T09:18:22.734Z,101456.72
2023-03-04T09:20:50.183Z,101464.66
2023-03-04T09:23:17.910Z,101458.53
2023-03-04T09:25:49.530Z,101459.47
2023-03-04T09:28:18.007Z,101456.81
2023-03-04T09:30:45.135Z,101466.56
2023-03-04T09:33:19.803Z,101460.44
2023-03-04T09:35:48.789Z,101462.28
2023-03-04T09:38:15.618Z,101462.28
2023-03-04T09:40:47.018Z,101461.47
2023-03-04T09:43:30.051Z,101460.63
2023-03-04T09:46:08.636Z,101465.00
2023-03-04T09:48:45.853Z,101459.81
2023-03-04T09:51:47.879Z,101460.66
2023-03-04T09:55:18.185Z,101457.16
2023-03-04T09:57:58.863Z,101460.66
2023-03-04T10:00:39.745Z,101462.38
2023-03-04T10:03:12.092Z,101459.72
2023-03-04T10:06:10.673Z,101456.19
2023-03-04T10:09:04.954Z,101454.41
2023-03-04T10:11:59.569Z,101451.81
2023-03-04T10:14:35.796Z,101465.97
2023-03-04T10:17:34.434Z,101446.81
2023-03-04T10:20:47.089Z,101457.53
2023-03-04T10:23:22.553Z,101449.72
2023-03-04T10:25:53.758Z,101448.94
2023-03-04T10:28:30.100Z,101452.56
2023-03-04T10:31:29.003Z,101457.00
2023-03-04T10:33:55.809Z,101449.91
2023-03-04T10:36:31.575Z,101448.25
2023-03-04T10:39:06.323Z,101450.00
2023-03-04T10:41:33.458Z,101451.69
2023-03-04T10:44:09.050Z,101449.06
2023-03-04T10:46:47.891Z,101454.31
2023-03-04T10:49:19.924Z,101459.63
2023-03-04T10:52:11.706Z,101458.91
2023-03-04T10:55:00.792Z,101458.97
2023-03-04T10:57:37.999Z,101458.97
2023-03-04T11:00:32.001Z,101462.59
2023-03-04T11:03:37.306Z,101460.72
2023-03-04T11:06:23.115Z,101464.06
2023-03-04T11:09:00.862Z,101460.41
2023-03-04T11:11:46.203Z,101452.47
2023-03-04T11:14:28.538Z,101448.09
2023-03-04T11:17:17.692Z,101443.72
2023-03-04T11:19:50.718Z,101447.19
2023-03-04T11:22:20.937Z,101448.19
2023-03-04T11:24:58.673Z,101448.41
2023-03-04T11:27:43.060Z,101456.59
2023-03-04T11:30:26.924Z,101450.59
2023-03-04T11:33:03.202Z,101449.00
2023-03-04T11:35:48.518Z,101443.84
2023-03-04T11:38:23.183Z,101438.59
2023-03-04T11:40:58.080Z,101439.47
2023-03-04T11:43:46.398Z,101428.84
2023-03-04T11:46:51.563Z,101434.94
2023-03-04T11:49:56.709Z,101424.34
2023-03-04T11:52:34.039Z,101426.28
2023-03-04T11:55:27.782Z,101427.31
2023-03-04T11:58:35.546Z,101419.38
2023-03-04T12:01:13.230Z,101414.06
2023-03-04T12:04:15.017Z,101411.53
2023-03-04T12:07:16.399Z,101393.25
2023-03-04T12:10:00.529Z,101393.47
2023-03-04T12:12:52.714Z,101396.31
2023-03-04T12:15:59.478Z,101391.06
2023-03-04T12:18:41.085Z,101411.22
2023-03-04T12:22:02.696Z,101397.66
2023-03-04T12:24:42.609Z,101423.13
2023-03-04T12:28:00.561Z,101406.38
2023-03-04T12:31:02.408Z,101399.34
2023-03-04T12:33:49.329Z,101406.44
2023-03-04T12:37:08.117Z,101395.88
2023-03-04T12:39:56.964Z,101393.31
2023-03-04T12:42:55.682Z,101412.84
2023-03-04T12:45:49.606Z,101387.38
2023-03-04T12:48:37.402Z,101386.53
2023-03-04T12:51:29.242Z,101378.59
2023-03-04T12:54:04.969Z,101388.44
2023-03-04T12:56:43.576Z,101370.00
2023-03-04T12:59:19.749Z,101369.22
2023-03-04T13:02:27.619Z,101369.31
2023-03-04T13:05:02.631Z,101366.66
2023-03-04T13:08:16.008Z,101378.09
2023-03-04T13:10:42.851Z,101380.56
2023-03-04T13:13:40.324Z,101369.72
2023-03-04T13:16:19.449Z,101367.78
2023-03-04T13:18:46.341Z,101370.34
2023-03-04T13:21:22.937Z,101368.53
2023-03-04T13:23:51.163Z,101365.84
2023-03-04T13:26:34.481Z,101364.03
2023-03-04T13:29:13.306Z,101359.56
2023-03-04T13:32:09.893Z,101359.56
2023-03-04T13:34:53.706Z,101360.53
2023-03-04T13:37:37.056Z,101363.28
2023-03-04T13:40:27.211Z,101368.66
2023-03-04T13:42:54.027Z,101366.88
2023-03-04T13:45:36.157Z,101372.97
2023-03-04T13:48:25.742Z,101387.78
2023-03-04T13:50:53.285Z,101398.06
2023-03-04T13:53:39.752Z,101380.19
2023-03-04T13:56:18.492Z,101382.66
2023-03-04T13:58:46.173Z,101374.53
2023-03-04T14:01:30.248Z,101381.44
2023-03-04T14:03:57.850Z,101386.59
2023-03-04T14:06:31.946Z,101381.28
2023-03-04T14:08:58.768Z,101375.91
2023-03-04T14:11:42.521Z,101378.59
2023-03-04T14:14:16.439Z,101373.25
2023-03-04T14:16:57.637Z,101379.38
2023-03-04T14:19:48.656Z,101387.16
2023-03-04T14:22:38.879Z,101379.97
2023-03-04T14:25:20.702Z,101383.41
2023-03-04T14:27:47.883Z,101389.38
2023-03-04T14:30:44.480Z,101385.84
2023-03-04T14:33:19.880Z,101378.66
2023-03-04T14:35:49.453Z,101369.88
2023-03-04T14:38:31.097Z,101363.81
2023-03-04T14:41:39.850Z,101365.69
2023-03-04T14:44:35.523Z,101369.19
2023-03-04T14:47:19.452Z,101365.69
2023-03-04T14:49:46.767Z,101363.06
2023-03-04T14:53:13.821Z,101362.25
2023-03-04T14:55:40.670Z,101350.78
2023-03-04T14:58:22.155Z,101350.78
2023-03-04T15:00:49.475Z,101352.56
2023-03-04T15:03:25.645Z,101349.88
2023-03-04T15:05:54.977Z,101348.06
2023-03-04T15:08:35.195Z,101338.28
2023-03-04T15:11:05.659Z,101342.63
2023-03-04T15:13:43.935Z,101346.16
2023-03-04T15:16:13.878Z,101348.72
2023-03-04T15:19:23.933Z,101343.34
2023-03-04T15:21:50.693Z,101344.16
2023-03-04T15:24:17.451Z,101338.88
2023-03-04T15:26:45.939Z,101336.25
2023-03-04T15:29:22.233Z,101328.31
2023-03-04T15:31:49.439Z,101337.09
2023-03-04T15:34:20.520Z,101330.97
2023-03-04T15:36:50.411Z,101334.47
2023-03-04T15:39:19.059Z,101329.19
2023-03-04T15:41:50.430Z,101337.13
2023-03-04T15:44:17.193Z,101336.16
2023-03-04T15:46:43.952Z,101339.69
2023-03-04T15:49:10.692Z,101340.63
2023-03-04T15:51:37.510Z,101336.25
2023-03-04T15:54:04.736Z,101343.28
2023-03-04T15:56:33.822Z,101347.66
2023-03-04T15:59:11.270Z,101341.47
2023-03-04T16:01:38.309Z,101346.81
2023-03-04T16:04:05.508Z,101339.78
2023-03-04T16:06:32.977Z,101346.81
2023-03-04T16:09:00.662Z,101340.63
2023-03-04T16:11:30.564Z,101345.03
2023-03-04T16:13:57.373Z,101351.19
2023-03-04T16:16:24.132Z,101344.94
2023-03-04T16:18:50.902Z,101348.38
2023-03-04T16:21:20.445Z,101356.22
2023-03-04T16:23:49.846Z,101356.19
2023-03-04T16:26:26.052Z,101350.84
2023-03-04T16:28:53.991Z,101361.41
2023-03-04T16:31:22.142Z,101356.13
2023-03-04T16:33:49.109Z,101364.88
2023-03-04T16:36:23.764Z,101361.31
2023-03-04T16:38:51.813Z,101377.09
2023-03-04T16:41:23.136Z,101361.09
2023-03-04T16:43:49.934Z,101366.28
2023-03-04T16:46:16.724Z,101360.03
2023-03-04T16:48:43.542Z,101360.78
2023-03-04T16:51:17.258Z,101366.88
2023-03-04T16:53:50.132Z,101363.28
2023-03-04T16:56:18.763Z,101360.53
2023-03-04T16:58:46.521Z,101359.50
2023-03-04T17:01:19.318Z,101362.06
2023-03-04T17:03:46.462Z,101350.56
2023-03-04T17:06:14.935Z,101348.75
2023-03-04T17:08:43.264Z,101347.06
2023-03-04T17:11:19.391Z,101349.69
2023-03-04T17:13:46.593Z,101354.97
2023-03-04T17:16:15.078Z,101353.19
2023-03-04T17:18:42.550Z,101362.88
2023-03-04T17:21:15.121Z,101362.00
2023-03-04T17:23:41.923Z,101363.78
2023-03-04T17:26:09.309Z,101358.47
2023-03-04T17:28:37.199Z,101362.00
2023-03-04T17:31:12.247Z,101364.59
2023-03-04T17:33:39.192Z,101361.94
2023-03-04T17:36:06.372Z,101364.53
2023-03-04T17:38:33.922Z,101365.44
2023-03-04T17:41:09.255Z,101368.97
2023-03-04T17:43:36.049Z,101371.59
2023-03-04T17:46:09.263Z,101373.34
2023-03-04T17:48:36.224Z,101368.97
2023-03-04T17:51:03.466Z,101362.84
2023-03-04T17:53:30.600Z,101364.59
2023-03-04T17:56:00.738Z,101373.44
2023-03-04T17:58:29.271Z,101369.91
2023-03-04T18:01:03.733Z,101375.13
2023-03-04T18:03:30.636Z,101366.31
2023-03-04T18:05:57.569Z,101368.06
2023-03-04T18:08:24.378Z,101371.59
2023-03-04T18:10:51.180Z,101366.31
2023-03-04T18:13:17.983Z,101366.31
2023-03-04T18:15:44.754Z,101368.03
2023-03-04T18:18:12.813Z,101371.50
2023-03-04T18:20:39.561Z,101376.78
2023-03-04T18:23:06.431Z,101369.72
2023-03-04T18:25:33.202Z,101366.22
2023-03-04T18:27:59.985Z,101370.63
2023-03-04T18:30:27.440Z,101367.06
2023-03-04T18:32:59.541Z,101364.44
2023-03-04T18:35:26.779Z,101367.88
2023-03-04T18:37:53.585Z,101363.50
2023-03-04T18:40:21.086Z,101360.84
2023-03-04T18:42:47.888Z,101361.69
2023-03-04T18:45:16.027Z,101373.13
2023-03-04T18:47:49.762Z,101362.59
2023-03-04T18:50:17.422Z,101369.56
2023-03-04T18:52:44.738Z,101367.75
2023-03-04T18:55:12.922Z,101375.69
2023-03-04T18:57:42.922Z,101379.22
2023-03-04T19:00:11.340Z,101373.03
2023-03-04T19:02:47.820Z,101387.03
2023-03-04T19:05:23.187Z,101371.19
2023-03-04T19:07:50.071Z,101370.25
2023-03-04T19:10:18.580Z,101376.38
2023-03-04T19:12:45.476Z,101378.09
2023-03-04T19:15:13.609Z,101379.78
2023-03-04T19:17:40.867Z,101378.84
2023-03-04T19:20:09.574Z,101367.41
2023-03-04T19:22:36.669Z,101370.91
2023-03-04T19:25:04.060Z,101366.50
2023-03-04T19:27:32.357Z,101378.78
2023-03-04T19:29:59.142Z,101365.56
2023-03-04T19:32:26.172Z,101370.78
2023-03-04T19:34:53.020Z,101374.31
2023-03-04T19:37:19.911Z,101375.22
2023-03-04T19:39:48.936Z,101369.13
2023-03-04T19:42:16.002Z,101362.94
2023-03-04T19:44:44.870Z,101371.78
2023-03-04T19:47:11.921Z,101369.03
2023-03-04T19:49:38.920Z,101369.03
2023-03-04T19:52:05.793Z,101378.69
2023-03-04T19:54:32.679Z,101376.03
2023-03-04T19:56:59.444Z,101382.13
2023-03-04T19:59:26.499Z,101383.88
2023-03-04T20:01:54.153Z,101377.69
2023-03-04T20:04:21.818Z,101375.00
2023-03-04T20:06:50.994Z,101374.09
2023-03-04T20:09:19.435Z,101370.63
2023-03-04T20:12:02.523Z,101382.00
2023-03-04T20:14:32.231Z,101373.22
2023-03-04T20:17:03.379Z,101378.47
2023-03-04T20:19:31.816Z,101381.09
2023-03-04T20:21:59.190Z,101376.72
2023-03-04T20:24:26.567Z,101379.38
2023-03-04T20:26:53.828Z,101377.63
2023-03-04T20:29:20.587Z,101382.91
2023-03-04T20:31:48.150Z,101379.38
2023-03-04T20:34:15.880Z,101389.91
2023-03-04T20:36:42.728Z,101372.34
2023-03-04T20:39:27.614Z,101393.44
2023-03-04T20:41:56.484Z,101388.06
2023-03-04T20:44:23.309Z,101388.00
2023-03-04T20:46:51.155Z,101385.31
2023-03-04T20:49:23.725Z,101385.25
2023-03-04T20:51:56.318Z,101383.44
2023-03-04T20:54:38.919Z,101394.84
2023-03-04T20:57:08.337Z,101382.44
2023-03-04T20:59:35.855Z,101380.66
2023-03-04T21:02:02.723Z,101378.88
2023-03-04T21:04:31.875Z,101383.25
2023-03-04T21:06:59.325Z,101381.47
2023-03-04T21:09:26.708Z,101376.19
2023-03-04T21:11:54.259Z,101363.91
2023-03-04T21:14:25.687Z,101374.44
2023-03-04T21:16:56.539Z,101370.06
2023-03-04T21:19:30.351Z,101371.81
2023-03-04T21:21:58.374Z,101370.06
2023-03-04T21:24:29.881Z,101363.91
2023-03-04T21:26:56.907Z,101373.56
2023-03-04T21:29:26.794Z,101374.44
2023-03-04T21:32:22.477Z,101364.81
2023-03-04T21:34:52.199Z,101363.00
2023-03-04T21:37:20.593Z,101362.16
2023-03-04T21:39:47.422Z,101363.00
2023-03-04T21:42:14.241Z,101363.91
2023-03-04T21:44:49.180Z,101368.28
2023-03-04T21:47:17.486Z,101361.22
2023-03-04T21:49:44.285Z,101356.78
2023-03-04T21:52:11.148Z,101361.22
2023-03-04T21:54:37.907Z,101365.59
2023-03-04T21:57:04.707Z,101370.81
2023-03-04T21:59:31.554Z,101369.91
2023-03-04T22:01:58.439Z,101362.84
2023-03-04T22:04:25.214Z,101363.69
2023-03-04T22:06:51.984Z,101354.03
2023-03-04T22:09:18.906Z,101357.50
2023-03-04T22:11:45.740Z,101348.66
2023-03-04T22:14:12.781Z,101347.78
2023-03-04T22:16:54.058Z,101355.72
2023-03-04T22:19:27.343Z,101346.94
2023-03-04T22:21:54.465Z,101348.66
2023-03-04T22:24:22.970Z,101345.91
2023-03-04T22:26:49.771Z,101344.03
2023-03-04T22:29:16.560Z,101348.34
2023-03-04T22:31:43.435Z,101350.94
2023-03-04T22:34:14.148Z,101345.66
2023-03-04T22:36:44.877Z,101335.97
2023-03-04T22:39:14.868Z,101338.53
2023-03-04T22:41:41.882Z,101336.75
2023-03-04T22:44:08.706Z,101321.72
2023-03-04T22:46:38.737Z,101325.25
2023-03-04T22:49:11.557Z,101320.84
2023-03-04T22:51:43.909Z,101326.97
2023-03-04T22:54:14.175Z,101319.94
2023-03-04T22:56:41.141Z,101322.56
2023-03-04T22:59:07.947Z,101329.63
2023-03-04T23:01:34.882Z,101337.50
2023-03-04T23:04:02.161Z,101325.19
2023-03-04T23:06:30.372Z,101327.88
2023-03-04T23:08:59.133Z,101320.84
2023-03-04T23:11:29.942Z,101320.88
2023-03-04T23:13:57.151Z,101321.78
2023-03-04T23:16:25.337Z,101309.47
2023-03-04T23:18:53.224Z,101318.25
2023-03-04T23:21:25.341Z,101317.34
2023-03-04T23:23:52.547Z,101318.13
2023-03-04T23:26:21.876Z,101315.50
2023-03-04T23:28:49.122Z,101317.25
2023-03-04T23:31:16.636Z,101318.13
2023-03-04T23:33:45.104Z,101312.81
2023-03-04T23:36:15.677Z,101311.09
2023-03-04T23:38:48.193Z,101311.09
2023-03-04T23:41:22.742Z,101313.72
2023-03-04T23:43:51.877Z,101310.13
2023-03-04T23:46:19.473Z,101303.97
2023-03-04T23:48:46.798Z,101313.59
2023-03-04T23:51:16.764Z,101306.59
2023-03-04T23:53:43.979Z,101296.84
2023-03-04T23:56:14.499Z,101302.13
2023-03-04T23:58:42.665Z,101302.06
